sensor_id;sensor_type;location;lat;lon;timestamp;P1;durP1;ratioP1;P2;durP2;ratioP2
11334;SDS011;5722;42.620;23.374;2022-09-09T00:00:37;13.10;;;11.70;;
11334;SDS011;5722;42.620;23.374;2022-09-09T00:06:21;13.77;;;11.60;;
11334;SDS011;5722;42.620;23.374;2022-09-09T00:08:52;12.97;;;11.50;;
11334;SDS011;5722;42.620;23.374;2022-09-09T00:11:33;12.70;;;11.50;;
11334;SDS011;5722;42.620;23.374;2022-09-09T00:14:18;13.80;;;12.23;;
11334;SDS011;5722;42.620;23.374;2022-09-09T00:17:00;13.00;;;11.27;;
11334;SDS011;5722;42.620;23.374;2022-09-09T00:19:31;13.17;;;11.87;;
11334;SDS011;5722;42.620;23.374;2022-09-09T00:22:18;12.73;;;11.63;;
11334;SDS011;5722;42.620;23.374;2022-09-09T00:25:08;13.53;;;12.23;;
11334;SDS011;5722;42.620;23.374;2022-09-09T00:27:47;13.17;;;11.77;;
11334;SDS011;5722;42.620;23.374;2022-09-09T00:30:21;13.53;;;12.23;;
11334;SDS011;5722;42.620;23.374;2022-09-09T00:33:03;13.67;;;12.23;;
11334;SDS011;5722;42.620;23.374;2022-09-09T00:36:04;13.40;;;12.10;;
11334;SDS011;5722;42.620;23.374;2022-09-09T00:44:32;14.20;;;12.60;;
11334;SDS011;5722;42.620;23.374;2022-09-09T00:50:09;14.03;;;12.57;;
11334;SDS011;5722;42.620;23.374;2022-09-09T00:52:52;13.47;;;12.13;;
11334;SDS011;5722;42.620;23.374;2022-09-09T00:55:28;14.07;;;12.67;;
11334;SDS011;5722;42.620;23.374;2022-09-09T00:58:06;13.57;;;12.00;;
11334;SDS011;5722;42.620;23.374;2022-09-09T01:06:15;12.17;;;10.90;;
11334;SDS011;5722;42.620;23.374;2022-09-09T01:11:59;13.50;;;11.50;;
11334;SDS011;5722;42.620;23.374;2022-09-09T01:14:38;13.10;;;10.30;;
11334;SDS011;5722;42.620;23.374;2022-09-09T01:17:15;12.40;;;10.30;;
11334;SDS011;5722;42.620;23.374;2022-09-09T01:19:57;11.73;;;10.60;;
11334;SDS011;5722;42.620;23.374;2022-09-09T01:28:17;11.73;;;10.60;;
11334;SDS011;5722;42.620;23.374;2022-09-09T01:30:51;18.20;;;10.73;;
11334;SDS011;5722;42.620;23.374;2022-09-09T01:33:21;12.90;;;10.67;;
11334;SDS011;5722;42.620;23.374;2022-09-09T01:35:54;11.77;;;10.30;;
11334;SDS011;5722;42.620;23.374;2022-09-09T01:38:26;12.73;;;11.30;;
11334;SDS011;5722;42.620;23.374;2022-09-09T01:40:57;12.53;;;11.03;;
11334;SDS011;5722;42.620;23.374;2022-09-09T01:43:38;15.60;;;10.57;;
11334;SDS011;5722;42.620;23.374;2022-09-09T01:46:05;12.10;;;10.80;;
11334;SDS011;5722;42.620;23.374;2022-09-09T01:48:36;12.80;;;10.20;;
11334;SDS011;5722;42.620;23.374;2022-09-09T01:51:09;12.60;;;10.87;;
11334;SDS011;5722;42.620;23.374;2022-09-09T01:53:38;13.57;;;11.20;;
11334;SDS011;5722;42.620;23.374;2022-09-09T01:56:18;11.97;;;10.67;;
11334;SDS011;5722;42.620;23.374;2022-09-09T02:02:00;14.07;;;11.97;;
11334;SDS011;5722;42.620;23.374;2022-09-09T02:04:47;13.87;;;11.77;;
11334;SDS011;5722;42.620;23.374;2022-09-09T02:07:26;13.10;;;11.90;;
11334;SDS011;5722;42.620;23.374;2022-09-09T02:10:03;17.00;;;12.37;;
11334;SDS011;5722;42.620;23.374;2022-09-09T02:12:37;12.93;;;11.63;;
11334;SDS011;5722;42.620;23.374;2022-09-09T02:15:10;13.63;;;12.17;;
11334;SDS011;5722;42.620;23.374;2022-09-09T02:18:04;13.67;;;12.37;;
11334;SDS011;5722;42.620;23.374;2022-09-09T02:20:47;15.30;;;12.33;;
11334;SDS011;5722;42.620;23.374;2022-09-09T02:23:51;13.73;;;11.93;;
11334;SDS011;5722;42.620;23.374;2022-09-09T02:26:21;13.43;;;12.03;;
11334;SDS011;5722;42.620;23.374;2022-09-09T02:28:52;13.47;;;12.20;;
11334;SDS011;5722;42.620;23.374;2022-09-09T02:34:10;13.60;;;12.40;;
11334;SDS011;5722;42.620;23.374;2022-09-09T02:36:40;13.53;;;12.27;;
11334;SDS011;5722;42.620;23.374;2022-09-09T02:39:16;14.03;;;12.60;;
11334;SDS011;5722;42.620;23.374;2022-09-09T02:41:46;20.00;;;13.27;;
11334;SDS011;5722;42.620;23.374;2022-09-09T02:44:24;14.67;;;13.27;;
11334;SDS011;5722;42.620;23.374;2022-09-09T02:46:58;14.33;;;12.90;;
11334;SDS011;5722;42.620;23.374;2022-09-09T02:49:38;14.30;;;13.00;;
11334;SDS011;5722;42.620;23.374;2022-09-09T02:52:13;14.47;;;13.07;;
11334;SDS011;5722;42.620;23.374;2022-09-09T03:03:03;14.67;;;13.17;;
11334;SDS011;5722;42.620;23.374;2022-09-09T03:05:45;14.73;;;13.33;;
11334;SDS011;5722;42.620;23.374;2022-09-09T03:08:15;15.63;;;13.97;;
11334;SDS011;5722;42.620;23.374;2022-09-09T03:10:45;14.83;;;13.40;;
11334;SDS011;5722;42.620;23.374;2022-09-09T03:13:22;16.03;;;14.17;;
11334;SDS011;5722;42.620;23.374;2022-09-09T03:16:06;15.60;;;14.00;;
11334;SDS011;5722;42.620;23.374;2022-09-09T03:18:51;14.90;;;12.77;;
11334;SDS011;5722;42.620;23.374;2022-09-09T05:10:58;12.17;;;11.10;;
11334;SDS011;5722;42.620;23.374;2022-09-09T05:13:33;12.90;;;10.67;;
11334;SDS011;5722;42.620;23.374;2022-09-09T05:16:16;11.30;;;10.13;;
11334;SDS011;5722;42.620;23.374;2022-09-09T05:19:03;12.50;;;10.88;;
11334;SDS011;5722;42.620;23.374;2022-09-09T05:22:17;10.73;;;9.67;;
11334;SDS011;5722;42.620;23.374;2022-09-09T05:25:04;11.43;;;9.25;;
11334;SDS011;5722;42.620;23.374;2022-09-09T05:28:00;10.70;;;9.38;;
11334;SDS011;5722;42.620;23.374;2022-09-09T05:41:21;9.52;;;8.48;;
11334;SDS011;5722;42.620;23.374;2022-09-09T05:53:25;7.90;;;7.10;;
11334;SDS011;5722;42.620;23.374;2022-09-09T05:56:09;15.30;;;7.55;;
11334;SDS011;5722;42.620;23.374;2022-09-09T05:59:04;8.45;;;7.25;;
11334;SDS011;5722;42.620;23.374;2022-09-09T06:02:01;7.82;;;6.75;;
11334;SDS011;5722;42.620;23.374;2022-09-09T06:07:58;9.10;;;6.47;;
11334;SDS011;5722;42.620;23.374;2022-09-09T06:17:03;8.65;;;6.97;;
11334;SDS011;5722;42.620;23.374;2022-09-09T06:19:39;11.27;;;7.30;;
11334;SDS011;5722;42.620;23.374;2022-09-09T06:22:57;7.75;;;6.28;;
11334;SDS011;5722;42.620;23.374;2022-09-09T06:25:30;10.73;;;6.88;;
11334;SDS011;5722;42.620;23.374;2022-09-09T06:28:10;16.77;;;6.82;;
11334;SDS011;5722;42.620;23.374;2022-09-09T06:39:26;9.32;;;6.00;;
11334;SDS011;5722;42.620;23.374;2022-09-09T06:41:58;7.47;;;5.78;;
11334;SDS011;5722;42.620;23.374;2022-09-09T06:44:37;9.73;;;6.28;;
11334;SDS011;5722;42.620;23.374;2022-09-09T06:47:09;10.23;;;6.20;;
11334;SDS011;5722;42.620;23.374;2022-09-09T06:52:46;13.50;;;6.40;;
11334;SDS011;5722;42.620;23.374;2022-09-09T06:55:20;6.82;;;6.22;;
11334;SDS011;5722;42.620;23.374;2022-09-09T06:57:55;8.68;;;6.13;;
11334;SDS011;5722;42.620;23.374;2022-09-09T07:00:47;9.07;;;6.22;;
11334;SDS011;5722;42.620;23.374;2022-09-09T07:03:22;9.85;;;5.72;;
11334;SDS011;5722;42.620;23.374;2022-09-09T07:05:55;7.10;;;5.72;;
11334;SDS011;5722;42.620;23.374;2022-09-09T07:08:31;9.05;;;5.47;;
11334;SDS011;5722;42.620;23.374;2022-09-09T07:11:09;7.93;;;5.47;;
11334;SDS011;5722;42.620;23.374;2022-09-09T07:13:50;6.15;;;5.60;;
11334;SDS011;5722;42.620;23.374;2022-09-09T07:16:29;10.55;;;5.82;;
11334;SDS011;5722;42.620;23.374;2022-09-09T07:19:00;7.38;;;6.00;;
11334;SDS011;5722;42.620;23.374;2022-09-09T07:21:31;9.85;;;5.68;;
11334;SDS011;5722;42.620;23.374;2022-09-09T07:24:02;5.95;;;5.15;;
11334;SDS011;5722;42.620;23.374;2022-09-09T07:26:42;9.10;;;5.85;;
11334;SDS011;5722;42.620;23.374;2022-09-09T07:29:16;6.78;;;6.00;;
11334;SDS011;5722;42.620;23.374;2022-09-09T07:31:49;6.93;;;6.05;;
11334;SDS011;5722;42.620;23.374;2022-09-09T07:34:22;8.38;;;5.75;;
11334;SDS011;5722;42.620;23.374;2022-09-09T07:37:05;9.18;;;5.80;;
11334;SDS011;5722;42.620;23.374;2022-09-09T07:39:41;7.13;;;5.30;;
11334;SDS011;5722;42.620;23.374;2022-09-09T07:45:08;6.68;;;5.70;;
11334;SDS011;5722;42.620;23.374;2022-09-09T07:47:38;8.05;;;5.72;;
11334;SDS011;5722;42.620;23.374;2022-09-09T07:50:28;11.82;;;6.53;;
11334;SDS011;5722;42.620;23.374;2022-09-09T07:53:18;8.70;;;5.93;;
11334;SDS011;5722;42.620;23.374;2022-09-09T07:55:52;9.80;;;6.10;;
11334;SDS011;5722;42.620;23.374;2022-09-09T07:58:35;6.70;;;5.72;;
11334;SDS011;5722;42.620;23.374;2022-09-09T08:01:11;9.07;;;6.05;;
11334;SDS011;5722;42.620;23.374;2022-09-09T08:03:53;6.82;;;5.55;;
11334;SDS011;5722;42.620;23.374;2022-09-09T08:06:43;10.93;;;6.38;;
11334;SDS011;5722;42.620;23.374;2022-09-09T08:09:14;10.18;;;6.13;;
11334;SDS011;5722;42.620;23.374;2022-09-09T08:11:46;10.75;;;5.65;;
11334;SDS011;5722;42.620;23.374;2022-09-09T08:14:17;7.55;;;5.90;;
11334;SDS011;5722;42.620;23.374;2022-09-09T08:16:57;10.15;;;6.45;;
11334;SDS011;5722;42.620;23.374;2022-09-09T08:19:28;11.05;;;6.50;;
11334;SDS011;5722;42.620;23.374;2022-09-09T08:21:58;8.90;;;6.47;;
11334;SDS011;5722;42.620;23.374;2022-09-09T08:24:49;10.88;;;6.00;;
11334;SDS011;5722;42.620;23.374;2022-09-09T08:27:19;7.80;;;5.97;;
11334;SDS011;5722;42.620;23.374;2022-09-09T08:29:54;9.10;;;6.05;;
11334;SDS011;5722;42.620;23.374;2022-09-09T08:32:29;12.32;;;6.20;;
11334;SDS011;5722;42.620;23.374;2022-09-09T08:35:02;9.40;;;5.80;;
11334;SDS011;5722;42.620;23.374;2022-09-09T08:37:30;9.73;;;6.35;;
11334;SDS011;5722;42.620;23.374;2022-09-09T08:40:11;7.88;;;5.65;;
11334;SDS011;5722;42.620;23.374;2022-09-09T08:42:51;9.70;;;5.60;;
11334;SDS011;5722;42.620;23.374;2022-09-09T08:45:25;14.45;;;6.35;;
11334;SDS011;5722;42.620;23.374;2022-09-09T08:48:17;10.48;;;5.53;;
11334;SDS011;5722;42.620;23.374;2022-09-09T08:51:04;9.90;;;5.55;;
11334;SDS011;5722;42.620;23.374;2022-09-09T08:53:44;11.32;;;5.70;;
11334;SDS011;5722;42.620;23.374;2022-09-09T08:56:18;6.07;;;5.45;;
11334;SDS011;5722;42.620;23.374;2022-09-09T08:59:00;7.53;;;5.00;;
11334;SDS011;5722;42.620;23.374;2022-09-09T09:01:45;9.65;;;5.72;;
11334;SDS011;5722;42.620;23.374;2022-09-09T09:07:09;10.48;;;5.13;;
11334;SDS011;5722;42.620;23.374;2022-09-09T09:09:43;9.82;;;5.30;;
11334;SDS011;5722;42.620;23.374;2022-09-09T09:12:23;9.15;;;5.60;;
11334;SDS011;5722;42.620;23.374;2022-09-09T09:14:55;7.18;;;4.93;;
11334;SDS011;5722;42.620;23.374;2022-09-09T09:17:28;8.68;;;5.13;;
11334;SDS011;5722;42.620;23.374;2022-09-09T09:20:05;11.43;;;5.57;;
11334;SDS011;5722;42.620;23.374;2022-09-09T09:22:49;9.98;;;5.38;;
11334;SDS011;5722;42.620;23.374;2022-09-09T09:25:22;9.05;;;5.43;;
11334;SDS011;5722;42.620;23.374;2022-09-09T09:28:11;10.18;;;5.65;;
11334;SDS011;5722;42.620;23.374;2022-09-09T09:30:44;10.65;;;5.70;;
11334;SDS011;5722;42.620;23.374;2022-09-09T09:33:20;9.13;;;5.68;;
11334;SDS011;5722;42.620;23.374;2022-09-09T09:35:49;6.07;;;5.15;;
11334;SDS011;5722;42.620;23.374;2022-09-09T09:38:32;9.38;;;5.43;;
11334;SDS011;5722;42.620;23.374;2022-09-09T09:41:15;9.35;;;5.60;;
11334;SDS011;5722;42.620;23.374;2022-09-09T09:47:04;24.70;;;7.03;;
11334;SDS011;5722;42.620;23.374;2022-09-09T09:49:34;11.95;;;5.55;;
11334;SDS011;5722;42.620;23.374;2022-09-09T09:52:04;8.18;;;5.45;;
11334;SDS011;5722;42.620;23.374;2022-09-09T09:54:37;9.02;;;5.75;;
11334;SDS011;5722;42.620;23.374;2022-09-09T09:57:10;8.50;;;5.22;;
11334;SDS011;5722;42.620;23.374;2022-09-09T09:59:37;8.27;;;5.60;;
11334;SDS011;5722;42.620;23.374;2022-09-09T10:02:21;13.60;;;5.45;;
11334;SDS011;5722;42.620;23.374;2022-09-09T10:05:00;7.82;;;5.40;;
11334;SDS011;5722;42.620;23.374;2022-09-09T10:07:30;11.73;;;5.28;;
11334;SDS011;5722;42.620;23.374;2022-09-09T10:10:04;13.50;;;5.07;;
11334;SDS011;5722;42.620;23.374;2022-09-09T10:12:37;16.30;;;5.45;;
11334;SDS011;5722;42.620;23.374;2022-09-09T10:15:15;17.88;;;5.38;;
11334;SDS011;5722;42.620;23.374;2022-09-09T10:18:04;10.68;;;5.20;;
11334;SDS011;5722;42.620;23.374;2022-09-09T10:20:42;9.55;;;5.10;;
11334;SDS011;5722;42.620;23.374;2022-09-09T10:26:22;9.77;;;5.30;;
11334;SDS011;5722;42.620;23.374;2022-09-09T10:31:52;10.88;;;5.43;;
11334;SDS011;5722;42.620;23.374;2022-09-09T10:34:39;11.15;;;6.35;;
11334;SDS011;5722;42.620;23.374;2022-09-09T10:37:18;9.13;;;5.32;;
11334;SDS011;5722;42.620;23.374;2022-09-09T10:40:12;7.88;;;5.50;;
11334;SDS011;5722;42.620;23.374;2022-09-09T10:42:49;8.77;;;5.82;;
11334;SDS011;5722;42.620;23.374;2022-09-09T10:45:23;10.13;;;6.00;;
11334;SDS011;5722;42.620;23.374;2022-09-09T10:48:08;40.83;;;8.13;;
11334;SDS011;5722;42.620;23.374;2022-09-09T10:53:44;6.60;;;5.65;;
11334;SDS011;5722;42.620;23.374;2022-09-09T10:56:24;13.63;;;6.32;;
11334;SDS011;5722;42.620;23.374;2022-09-09T10:58:58;11.55;;;5.72;;
11334;SDS011;5722;42.620;23.374;2022-09-09T11:01:32;19.13;;;6.97;;
11334;SDS011;5722;42.620;23.374;2022-09-09T11:04:13;8.60;;;6.53;;
11334;SDS011;5722;42.620;23.374;2022-09-09T11:06:46;9.35;;;6.40;;
11334;SDS011;5722;42.620;23.374;2022-09-09T11:09:37;21.08;;;7.38;;
11334;SDS011;5722;42.620;23.374;2022-09-09T11:12:15;10.90;;;6.03;;
11334;SDS011;5722;42.620;23.374;2022-09-09T11:14:46;10.25;;;6.00;;
11334;SDS011;5722;42.620;23.374;2022-09-09T11:17:26;12.65;;;6.60;;
11334;SDS011;5722;42.620;23.374;2022-09-09T11:19:55;13.15;;;5.93;;
11334;SDS011;5722;42.620;23.374;2022-09-09T11:22:27;12.77;;;6.78;;
11334;SDS011;5722;42.620;23.374;2022-09-09T11:25:08;13.07;;;5.80;;
11334;SDS011;5722;42.620;23.374;2022-09-09T11:30:33;10.30;;;6.30;;
11334;SDS011;5722;42.620;23.374;2022-09-09T11:33:25;11.35;;;6.10;;
11334;SDS011;5722;42.620;23.374;2022-09-09T11:36:05;14.52;;;5.50;;
11334;SDS011;5722;42.620;23.374;2022-09-09T11:38:37;13.27;;;6.30;;
11334;SDS011;5722;42.620;23.374;2022-09-09T11:41:10;13.63;;;6.35;;
11334;SDS011;5722;42.620;23.374;2022-09-09T11:43:39;18.67;;;6.20;;
11334;SDS011;5722;42.620;23.374;2022-09-09T11:46:08;11.85;;;5.93;;
11334;SDS011;5722;42.620;23.374;2022-09-09T11:48:35;10.88;;;6.15;;
11334;SDS011;5722;42.620;23.374;2022-09-09T11:51:11;12.50;;;5.72;;
11334;SDS011;5722;42.620;23.374;2022-09-09T11:53:48;10.93;;;6.13;;
11334;SDS011;5722;42.620;23.374;2022-09-09T11:56:26;13.77;;;6.07;;
11334;SDS011;5722;42.620;23.374;2022-09-09T11:58:59;12.40;;;6.03;;
11334;SDS011;5722;42.620;23.374;2022-09-09T12:01:33;11.57;;;6.15;;
11334;SDS011;5722;42.620;23.374;2022-09-09T12:04:14;11.93;;;6.10;;
11334;SDS011;5722;42.620;23.374;2022-09-09T12:06:44;10.32;;;5.80;;
11334;SDS011;5722;42.620;23.374;2022-09-09T12:09:17;14.68;;;6.30;;
11334;SDS011;5722;42.620;23.374;2022-09-09T12:11:49;10.60;;;6.07;;
11334;SDS011;5722;42.620;23.374;2022-09-09T12:14:20;10.65;;;5.95;;
11334;SDS011;5722;42.620;23.374;2022-09-09T12:16:48;6.75;;;5.70;;
11334;SDS011;5722;42.620;23.374;2022-09-09T12:19:18;7.47;;;6.18;;
11334;SDS011;5722;42.620;23.374;2022-09-09T12:21:48;8.80;;;6.00;;
11334;SDS011;5722;42.620;23.374;2022-09-09T12:24:22;9.75;;;6.20;;
11334;SDS011;5722;42.620;23.374;2022-09-09T12:26:58;11.50;;;5.88;;
11334;SDS011;5722;42.620;23.374;2022-09-09T12:29:28;10.40;;;5.93;;
11334;SDS011;5722;42.620;23.374;2022-09-09T12:32:00;10.60;;;6.07;;
11334;SDS011;5722;42.620;23.374;2022-09-09T12:34:32;10.93;;;6.15;;
11334;SDS011;5722;42.620;23.374;2022-09-09T12:37:04;10.60;;;6.53;;
11334;SDS011;5722;42.620;23.374;2022-09-09T12:39:36;11.68;;;5.85;;
11334;SDS011;5722;42.620;23.374;2022-09-09T12:42:14;9.18;;;5.90;;
11334;SDS011;5722;42.620;23.374;2022-09-09T12:44:52;11.18;;;6.60;;
11334;SDS011;5722;42.620;23.374;2022-09-09T12:47:25;9.02;;;5.95;;
11334;SDS011;5722;42.620;23.374;2022-09-09T12:49:57;6.47;;;5.78;;
11334;SDS011;5722;42.620;23.374;2022-09-09T12:52:29;14.38;;;6.32;;
11334;SDS011;5722;42.620;23.374;2022-09-09T12:54:58;9.48;;;6.25;;
11334;SDS011;5722;42.620;23.374;2022-09-09T12:57:36;15.20;;;6.63;;
11334;SDS011;5722;42.620;23.374;2022-09-09T13:00:05;13.43;;;5.68;;
11334;SDS011;5722;42.620;23.374;2022-09-09T13:02:34;12.63;;;6.20;;
11334;SDS011;5722;42.620;23.374;2022-09-09T13:05:12;10.13;;;6.18;;
11334;SDS011;5722;42.620;23.374;2022-09-09T13:07:44;9.25;;;5.68;;
11334;SDS011;5722;42.620;23.374;2022-09-09T13:10:14;9.73;;;6.20;;
11334;SDS011;5722;42.620;23.374;2022-09-09T13:12:47;9.50;;;6.30;;
11334;SDS011;5722;42.620;23.374;2022-09-09T13:15:16;10.70;;;6.32;;
11334;SDS011;5722;42.620;23.374;2022-09-09T13:18:00;14.70;;;6.40;;
11334;SDS011;5722;42.620;23.374;2022-09-09T13:20:30;11.73;;;6.30;;
11334;SDS011;5722;42.620;23.374;2022-09-09T13:23:00;23.42;;;8.60;;
11334;SDS011;5722;42.620;23.374;2022-09-09T13:25:29;21.73;;;8.25;;
11334;SDS011;5722;42.620;23.374;2022-09-09T13:28:04;11.13;;;7.18;;
11334;SDS011;5722;42.620;23.374;2022-09-09T13:30:34;34.40;;;11.38;;
11334;SDS011;5722;42.620;23.374;2022-09-09T13:33:17;18.15;;;7.50;;
11334;SDS011;5722;42.620;23.374;2022-09-09T13:35:46;11.45;;;6.03;;
11334;SDS011;5722;42.620;23.374;2022-09-09T13:41:19;11.15;;;6.05;;
11334;SDS011;5722;42.620;23.374;2022-09-09T13:43:54;15.43;;;6.15;;
11334;SDS011;5722;42.620;23.374;2022-09-09T13:46:31;15.38;;;7.55;;
11334;SDS011;5722;42.620;23.374;2022-09-09T13:49:18;13.73;;;6.07;;
11334;SDS011;5722;42.620;23.374;2022-09-09T13:52:03;15.50;;;6.30;;
11334;SDS011;5722;42.620;23.374;2022-09-09T13:54:35;11.80;;;6.40;;
11334;SDS011;5722;42.620;23.374;2022-09-09T13:57:05;16.15;;;6.10;;
11334;SDS011;5722;42.620;23.374;2022-09-09T13:59:39;15.07;;;6.65;;
11334;SDS011;5722;42.620;23.374;2022-09-09T14:02:11;12.00;;;6.22;;
11334;SDS011;5722;42.620;23.374;2022-09-09T14:04:42;12.85;;;6.10;;
11334;SDS011;5722;42.620;23.374;2022-09-09T14:07:14;13.55;;;6.45;;
11334;SDS011;5722;42.620;23.374;2022-09-09T14:09:51;15.27;;;5.88;;
11334;SDS011;5722;42.620;23.374;2022-09-09T14:12:28;16.33;;;6.45;;
11334;SDS011;5722;42.620;23.374;2022-09-09T14:15:06;13.75;;;6.10;;
11334;SDS011;5722;42.620;23.374;2022-09-09T14:17:35;9.77;;;5.88;;
11334;SDS011;5722;42.620;23.374;2022-09-09T14:20:03;11.65;;;5.55;;
11334;SDS011;5722;42.620;23.374;2022-09-09T14:22:40;10.85;;;5.65;;
11334;SDS011;5722;42.620;23.374;2022-09-09T14:25:19;12.00;;;6.38;;
11334;SDS011;5722;42.620;23.374;2022-09-09T14:28:00;12.52;;;5.80;;
11334;SDS011;5722;42.620;23.374;2022-09-09T14:30:37;11.57;;;5.93;;
11334;SDS011;5722;42.620;23.374;2022-09-09T14:33:11;10.70;;;6.00;;
11334;SDS011;5722;42.620;23.374;2022-09-09T14:35:55;11.07;;;6.10;;
11334;SDS011;5722;42.620;23.374;2022-09-09T14:38:29;10.65;;;6.13;;
11334;SDS011;5722;42.620;23.374;2022-09-09T14:40:58;10.38;;;6.00;;
11334;SDS011;5722;42.620;23.374;2022-09-09T14:43:31;10.27;;;6.05;;
11334;SDS011;5722;42.620;23.374;2022-09-09T14:49:04;9.35;;;5.65;;
11334;SDS011;5722;42.620;23.374;2022-09-09T14:51:33;10.77;;;5.72;;
11334;SDS011;5722;42.620;23.374;2022-09-09T14:54:04;10.10;;;6.07;;
11334;SDS011;5722;42.620;23.374;2022-09-09T14:56:39;9.13;;;5.78;;
11334;SDS011;5722;42.620;23.374;2022-09-09T14:59:15;13.32;;;6.15;;
11334;SDS011;5722;42.620;23.374;2022-09-09T15:01:48;16.67;;;6.72;;
11334;SDS011;5722;42.620;23.374;2022-09-09T15:04:28;12.80;;;6.22;;
11334;SDS011;5722;42.620;23.374;2022-09-09T15:07:01;11.98;;;6.80;;
11334;SDS011;5722;42.620;23.374;2022-09-09T15:09:34;12.38;;;6.10;;
11334;SDS011;5722;42.620;23.374;2022-09-09T15:12:05;12.80;;;6.03;;
11334;SDS011;5722;42.620;23.374;2022-09-09T15:14:49;12.48;;;6.63;;
11334;SDS011;5722;42.620;23.374;2022-09-09T16:10:24;11.60;;;7.78;;
11334;SDS011;5722;42.620;23.374;2022-09-09T16:13:07;19.50;;;7.97;;
11334;SDS011;5722;42.620;23.374;2022-09-09T16:16:00;15.38;;;8.13;;
11334;SDS011;5722;42.620;23.374;2022-09-09T16:21:34;9.20;;;7.35;;
11334;SDS011;5722;42.620;23.374;2022-09-09T16:24:11;15.23;;;7.70;;
11334;SDS011;5722;42.620;23.374;2022-09-09T16:26:47;15.80;;;8.27;;
11334;SDS011;5722;42.620;23.374;2022-09-09T16:29:24;14.27;;;8.68;;
11334;SDS011;5722;42.620;23.374;2022-09-09T16:34:56;13.68;;;9.45;;
11334;SDS011;5722;42.620;23.374;2022-09-09T16:44:05;14.45;;;9.45;;
11334;SDS011;5722;42.620;23.374;2022-09-09T16:46:58;13.35;;;9.40;;
11334;SDS011;5722;42.620;23.374;2022-09-09T16:58:49;15.75;;;10.05;;
11334;SDS011;5722;42.620;23.374;2022-09-09T17:17:02;18.88;;;13.77;;
11334;SDS011;5722;42.620;23.374;2022-09-09T17:41:13;13.23;;;10.65;;
11334;SDS011;5722;42.620;23.374;2022-09-09T18:16:41;16.73;;;10.68;;
11334;SDS011;5722;42.620;23.374;2022-09-09T18:22:26;14.10;;;10.18;;
11334;SDS011;5722;42.620;23.374;2022-09-09T18:25:02;19.95;;;10.60;;
11334;SDS011;5722;42.620;23.374;2022-09-09T18:30:40;16.58;;;10.75;;
11334;SDS011;5722;42.620;23.374;2022-09-09T18:33:13;17.17;;;10.05;;
11334;SDS011;5722;42.620;23.374;2022-09-09T18:35:50;15.27;;;8.88;;
11334;SDS011;5722;42.620;23.374;2022-09-09T18:38:32;12.57;;;9.85;;
11334;SDS011;5722;42.620;23.374;2022-09-09T18:41:15;14.90;;;8.75;;
11334;SDS011;5722;42.620;23.374;2022-09-09T18:43:47;16.23;;;9.15;;
11334;SDS011;5722;42.620;23.374;2022-09-09T18:46:20;13.70;;;8.40;;
11334;SDS011;5722;42.620;23.374;2022-09-09T18:52:09;10.40;;;8.55;;
11334;SDS011;5722;42.620;23.374;2022-09-09T18:54:40;14.80;;;8.75;;
11334;SDS011;5722;42.620;23.374;2022-09-09T18:57:13;12.55;;;8.13;;
11334;SDS011;5722;42.620;23.374;2022-09-09T18:59:45;15.65;;;8.20;;
11334;SDS011;5722;42.620;23.374;2022-09-09T19:02:21;11.25;;;7.60;;
11334;SDS011;5722;42.620;23.374;2022-09-09T19:04:50;12.05;;;7.65;;
11334;SDS011;5722;42.620;23.374;2022-09-09T19:07:30;14.95;;;8.13;;
11334;SDS011;5722;42.620;23.374;2022-09-09T19:10:16;12.70;;;7.68;;
11334;SDS011;5722;42.620;23.374;2022-09-09T19:12:57;14.13;;;8.02;;
11334;SDS011;5722;42.620;23.374;2022-09-09T19:15:30;15.43;;;8.27;;
11334;SDS011;5722;42.620;23.374;2022-09-09T19:18:11;10.80;;;8.35;;
11334;SDS011;5722;42.620;23.374;2022-09-09T19:20:38;10.88;;;8.07;;
11334;SDS011;5722;42.620;23.374;2022-09-09T19:26:05;14.05;;;8.20;;
11334;SDS011;5722;42.620;23.374;2022-09-09T19:28:34;12.30;;;8.10;;
11334;SDS011;5722;42.620;23.374;2022-09-09T19:31:28;11.27;;;8.27;;
11334;SDS011;5722;42.620;23.374;2022-09-09T19:40:04;13.88;;;9.00;;
11334;SDS011;5722;42.620;23.374;2022-09-09T19:42:41;13.00;;;8.48;;
11334;SDS011;5722;42.620;23.374;2022-09-09T19:45:15;10.57;;;8.68;;
11334;SDS011;5722;42.620;23.374;2022-09-09T19:47:56;17.60;;;8.93;;
11334;SDS011;5722;42.620;23.374;2022-09-09T19:56:43;12.05;;;9.20;;
11334;SDS011;5722;42.620;23.374;2022-09-09T20:03:06;16.60;;;9.00;;
11334;SDS011;5722;42.620;23.374;2022-09-09T20:05:50;16.15;;;9.57;;
11334;SDS011;5722;42.620;23.374;2022-09-09T20:08:36;10.68;;;9.43;;
11334;SDS011;5722;42.620;23.374;2022-09-09T20:11:21;10.57;;;9.00;;
11334;SDS011;5722;42.620;23.374;2022-09-09T20:44:21;12.90;;;9.73;;
11334;SDS011;5722;42.620;23.374;2022-09-09T20:46:51;31.48;;;20.83;;
11334;SDS011;5722;42.620;23.374;2022-09-09T21:23:19;36.17;;;23.20;;
11334;SDS011;5722;42.620;23.374;2022-09-09T21:26:00;15.32;;;11.80;;
11334;SDS011;5722;42.620;23.374;2022-09-09T21:28:38;11.25;;;10.07;;
11334;SDS011;5722;42.620;23.374;2022-09-09T22:14:08;18.25;;;10.15;;
11334;SDS011;5722;42.620;23.374;2022-09-09T22:16:35;12.35;;;9.18;;
11334;SDS011;5722;42.620;23.374;2022-09-09T22:19:21;17.60;;;9.30;;
11334;SDS011;5722;42.620;23.374;2022-09-09T22:21:50;32.95;;;24.00;;
11334;SDS011;5722;42.620;23.374;2022-09-09T22:24:18;27.67;;;22.30;;
11334;SDS011;5722;42.620;23.374;2022-09-09T22:26:54;21.23;;;12.73;;
11334;SDS011;5722;42.620;23.374;2022-09-09T22:38:19;13.45;;;12.15;;
11334;SDS011;5722;42.620;23.374;2022-09-09T22:40:51;13.07;;;11.68;;
11334;SDS011;5722;42.620;23.374;2022-09-09T22:52:54;17.35;;;13.68;;
11334;SDS011;5722;42.620;23.374;2022-09-09T23:14:10;20.35;;;10.60;;
11334;SDS011;5722;42.620;23.374;2022-09-09T23:16:57;11.95;;;10.75;;
11334;SDS011;5722;42.620;23.374;2022-09-09T23:19:27;13.23;;;10.45;;
11334;SDS011;5722;42.620;23.374;2022-09-09T23:21:55;12.30;;;10.65;;
11334;SDS011;5722;42.620;23.374;2022-09-09T23:24:44;17.20;;;11.88;;
11334;SDS011;5722;42.620;23.374;2022-09-09T23:27:12;19.38;;;11.02;;
11334;SDS011;5722;42.620;23.374;2022-09-09T23:30:01;13.10;;;10.30;;
11334;SDS011;5722;42.620;23.374;2022-09-09T23:32:39;11.88;;;10.65;;
11334;SDS011;5722;42.620;23.374;2022-09-09T23:38:19;12.63;;;9.85;;
11334;SDS011;5722;42.620;23.374;2022-09-09T23:44:12;11.50;;;9.80;;
11334;SDS011;5722;42.620;23.374;2022-09-09T23:53:03;14.77;;;9.90;;
11334;SDS011;5722;42.620;23.374;2022-09-09T23:55:34;13.20;;;10.40;;
11334;SDS011;5722;42.620;23.374;2022-09-09T23:58:21;15.30;;;11.52;;
